Time;durP1;ratioP1;P1;durP2;ratioP2;P2;SDS_P1;SDS_P2;PMS_P1;PMS_P2;Temp;Humidity;BMP_temperature;BMP_pressure;BME280_temperature;BME280_humidity;BME280_pressure;Samples;Min_cycle;Max_cycle;Signal;HPM_P1;HPM_P2
2022/09/10 00:01:18;;;;;;;2.38;1.77;;;;;;;19.93;100.00;96247.00;5144729;27;20054;-50
2022/09/10 00:03:49;;;;;;;1.85;1.50;;;;;;;20.15;100.00;96252.91;5143580;27;20085;-48
2022/09/10 00:06:18;;;;;;;1.90;1.60;;;;;;;20.13;100.00;96253.13;5144930;27;20461;-56
2022/09/10 00:08:48;;;;;;;1.80;1.50;;;;;;;20.00;100.00;96261.19;5144150;27;20059;-46
2022/09/10 00:11:16;;;;;;;2.73;1.70;;;;;;;19.92;100.00;96256.03;5140808;27;20066;-52
2022/09/10 00:13:44;;;;;;;2.15;1.55;;;;;;;20.31;100.00;96255.13;5136979;27;20503;-55
2022/09/10 00:16:14;;;;;;;3.08;1.58;;;;;;;19.51;100.00;96269.59;5139089;27;20074;-54
2022/09/10 00:18:43;;;;;;;2.90;1.40;;;;;;;19.87;100.00;96266.56;5144920;27;20083;-53
2022/09/10 00:21:14;;;;;;;1.90;1.30;;;;;;;19.39;100.00;96270.22;5139951;27;20083;-54
2022/09/10 00:23:44;;;;;;;1.98;1.30;;;;;;;19.33;100.00;96272.88;5139794;27;20461;-51
2022/09/10 00:26:15;;;;;;;3.28;1.30;;;;;;;19.23;100.00;96269.78;5135626;27;20513;-50
2022/09/10 00:28:44;;;;;;;3.53;1.40;;;;;;;19.24;100.00;96268.78;5138820;27;20075;-51
2022/09/10 00:31:13;;;;;;;2.85;1.42;;;;;;;18.55;100.00;96262.59;5142496;27;20957;-51
2022/09/10 00:33:41;;;;;;;4.03;1.30;;;;;;;18.73;100.00;96273.56;5145670;27;20460;-55
2022/09/10 00:36:16;;;;;;;1.65;1.30;;;;;;;18.71;100.00;96270.28;5143498;27;20069;-49
2022/09/10 00:38:45;;;;;;;2.85;1.50;;;;;;;19.33;100.00;96265.69;5146208;27;20093;-51
2022/09/10 00:41:14;;;;;;;1.05;1.00;;;;;;;19.21;100.00;96267.34;5147608;27;20066;-51
2022/09/10 00:43:48;;;;;;;1.08;1.08;;;;;;;19.63;100.00;96270.69;5144765;27;20464;-49
2022/09/10 00:46:28;;;;;;;3.55;1.10;;;;;;;19.11;100.00;96265.03;5139864;27;20074;-53
2022/09/10 00:48:59;;;;;;;1.48;1.20;;;;;;;19.27;100.00;96268.34;5147143;27;20082;-52
2022/09/10 00:51:30;;;;;;;2.90;1.40;;;;;;;19.33;100.00;96254.16;5143337;27;20074;-56
2022/09/10 00:53:59;;;;;;;2.60;1.23;;;;;;;18.64;100.00;96261.38;5137791;27;20513;-49
2022/09/10 00:56:28;;;;;;;3.85;1.30;;;;;;;19.15;100.00;96265.47;5140026;27;20074;-49
2022/09/10 00:58:56;;;;;;;1.75;1.30;;;;;;;18.78;100.00;96264.13;5147896;27;20081;-51
2022/09/10 01:01:25;;;;;;;2.42;1.15;;;;;;;19.31;100.00;96250.91;5138352;27;20062;-59
2022/09/10 01:03:54;;;;;;;2.15;1.20;;;;;;;18.88;100.00;96253.88;5147788;27;20741;-52
2022/09/10 01:06:23;;;;;;;1.85;1.25;;;;;;;18.88;100.00;96251.22;5148633;27;20074;-49
2022/09/10 01:08:52;;;;;;;1.77;1.20;;;;;;;19.20;100.00;96246.94;5143410;27;20071;-55
2022/09/10 01:11:41;;;;;;;2.83;1.30;;;;;;;19.36;100.00;96248.41;5141219;27;20512;-53
2022/09/10 01:14:28;;;;;;;1.55;1.33;;;;;;;19.17;100.00;96248.19;5139059;27;20097;-49
2022/09/10 01:17:03;;;;;;;3.17;1.40;;;;;;;18.57;100.00;96249.03;5137831;27;20066;-53
2022/09/10 01:20:01;;;;;;;3.50;1.33;;;;;;;19.51;100.00;96242.84;5143446;27;20127;-49
2022/09/10 01:22:37;;;;;;;2.63;1.55;;;;;;;19.54;100.00;96248.63;5111349;27;20074;-53
2022/09/10 01:25:13;;;;;;;4.00;1.30;;;;;;;19.28;100.00;96243.28;5147611;27;20480;-50
2022/09/10 01:27:44;;;;;;;3.35;1.50;;;;;;;18.84;100.00;96236.63;5144903;27;20069;-50
2022/09/10 01:30:16;;;;;;;3.05;1.45;;;;;;;19.59;100.00;96235.47;5139482;27;20519;-53
2022/09/10 01:32:51;;;;;;;2.17;1.20;;;;;;;19.57;100.00;96239.38;5143913;27;20693;-49
2022/09/10 01:35:23;;;;;;;1.73;1.40;;;;;;;19.34;100.00;96237.09;5141261;27;20085;-53
2022/09/10 01:37:54;;;;;;;2.20;1.20;;;;;;;19.23;100.00;96235.03;5138509;27;20059;-52
2022/09/10 01:40:28;;;;;;;3.63;1.30;;;;;;;19.51;100.00;96232.16;5144164;27;20066;-51
2022/09/10 01:43:01;;;;;;;1.65;1.25;;;;;;;19.11;100.00;96243.66;5138062;27;20078;-51
2022/09/10 01:45:29;;;;;;;1.90;1.20;;;;;;;19.35;100.00;96236.09;5140411;27;20082;-52
2022/09/10 01:48:21;;;;;;;2.80;1.30;;;;;;;19.95;100.00;96230.72;5136998;27;20078;-56
2022/09/10 01:50:56;;;;;;;2.00;1.20;;;;;;;20.23;100.00;96225.06;5140192;27;20473;-50
2022/09/10 01:53:47;;;;;;;1.30;1.20;;;;;;;19.82;100.00;96232.41;5145019;27;20644;-55
2022/09/10 01:56:24;;;;;;;1.38;1.23;;;;;;;20.29;100.00;96225.06;5136548;27;20046;-53
2022/09/10 01:58:57;;;;;;;2.53;1.30;;;;;;;19.66;100.00;96230.13;5136935;27;20077;-49
2022/09/10 02:01:28;;;;;;;3.10;1.20;;;;;;;20.50;100.00;96220.44;5140647;27;20075;-51
2022/09/10 02:03:59;;;;;;;2.42;1.10;;;;;;;19.83;100.00;96219.84;5143561;27;20480;-57
2022/09/10 02:06:29;;;;;;;2.15;1.20;;;;;;;19.91;100.00;96214.25;5141688;27;20464;-52
2022/09/10 02:08:59;;;;;;;9.80;1.40;;;;;;;19.99;100.00;96208.66;5145719;27;20062;-51
2022/09/10 02:11:28;;;;;;;4.55;1.33;;;;;;;19.92;100.00;96211.38;5134876;27;20074;-54
2022/09/10 02:13:58;;;;;;;4.90;1.40;;;;;;;20.63;100.00;96205.16;5132925;27;20074;-50
2022/09/10 02:16:30;;;;;;;1.67;1.20;;;;;;;20.09;100.00;96208.22;5132429;27;20094;-50
2022/09/10 02:19:00;;;;;;;2.10;1.20;;;;;;;20.66;100.00;96205.78;5140421;27;20115;-46
2022/09/10 02:21:28;;;;;;;1.75;1.08;;;;;;;20.09;100.00;96208.22;5143629;27;20517;-50
2022/09/10 02:23:58;;;;;;;1.45;1.00;;;;;;;20.54;100.00;96205.63;5140904;27;20571;-50
2022/09/10 02:26:26;;;;;;;2.10;1.25;;;;;;;20.20;100.00;96206.75;5142726;27;20077;-55
2022/09/10 02:28:55;;;;;;;1.17;1.02;;;;;;;21.08;100.00;96196.22;5135700;27;20078;-49
2022/09/10 02:31:24;;;;;;;1.77;1.20;;;;;;;20.88;100.00;96196.34;5140201;27;20086;-53
2022/09/10 02:33:53;;;;;;;1.25;1.10;;;;;;;20.86;100.00;96198.44;5136125;27;20313;-50
2022/09/10 02:36:24;;;;;;;3.88;1.10;;;;;;;20.82;100.00;96194.56;5144101;27;20066;-48
2022/09/10 02:38:55;;;;;;;2.38;1.10;;;;;;;20.51;100.00;96195.31;5136851;27;20085;-53
2022/09/10 02:41:24;;;;;;;3.15;1.02;;;;;;;20.59;100.00;96198.59;5140736;27;20086;-53
2022/09/10 02:43:52;;;;;;;2.47;1.00;;;;;;;20.72;100.00;96195.03;5138857;27;20074;-47
2022/09/10 02:46:21;;;;;;;1.75;1.20;;;;;;;20.61;100.00;96199.22;5141770;27;20092;-47
2022/09/10 02:48:53;;;;;;;1.88;1.10;;;;;;;20.60;100.00;96194.88;5142425;27;20073;-54
2022/09/10 02:51:22;;;;;;;2.70;1.42;;;;;;;19.77;100.00;96204.59;5141203;27;20584;-50
2022/09/10 02:53:50;;;;;;;1.67;1.20;;;;;;;20.19;100.00;96195.22;5133250;27;20453;-51
2022/09/10 02:56:19;;;;;;;1.45;1.20;;;;;;;19.83;100.00;96195.75;5140008;27;20066;-53
2022/09/10 02:58:47;;;;;;;2.20;1.40;;;;;;;19.90;100.00;96201.91;5141683;27;20086;-52
2022/09/10 03:01:18;;;;;;;2.50;1.20;;;;;;;20.08;100.00;96204.72;5146196;27;20090;-50
2022/09/10 03:03:48;;;;;;;;;;;;;;;20.32;100.00;96197.03;5139907;27;20067;-50
2022/09/10 03:06:20;;;;;;;1.00;1.00;;;;;;;19.86;100.00;96196.16;5146682;27;20375;-50
2022/09/10 03:08:48;;;;;;;2.85;1.30;;;;;;;20.05;100.00;96189.09;5147549;27;20085;-52
2022/09/10 03:11:17;;;;;;;1.48;1.20;;;;;;;19.89;100.00;96194.91;5144311;27;20077;-58
2022/09/10 03:13:46;;;;;;;1.65;1.17;;;;;;;20.21;100.00;96190.50;5139160;27;20481;-47
2022/09/10 03:16:15;;;;;;;2.17;1.30;;;;;;;20.21;100.00;96190.50;5149998;27;20690;-52
2022/09/10 03:18:44;;;;;;;7.43;1.42;;;;;;;20.28;100.00;96188.59;5151009;27;20087;-51
2022/09/10 03:21:13;;;;;;;3.00;1.35;;;;;;;19.63;100.00;96191.25;5138846;27;20524;-50
2022/09/10 03:23:43;;;;;;;2.10;1.20;;;;;;;19.35;100.00;96204.81;5145793;27;20592;-52
2022/09/10 03:26:13;;;;;;;1.92;1.23;;;;;;;19.60;100.00;96199.66;5147969;27;20495;-55
2022/09/10 03:28:42;;;;;;;1.95;1.35;;;;;;;19.89;100.00;96197.59;5152237;27;20101;-48
2022/09/10 03:31:12;;;;;;;2.10;1.38;;;;;;;19.50;100.00;96203.78;5143541;27;20090;-47
2022/09/10 03:33:40;;;;;;;1.35;1.13;;;;;;;19.89;100.00;96202.94;5142702;27;20079;-47
2022/09/10 03:36:09;;;;;;;2.80;1.73;;;;;;;19.99;100.00;96202.47;5141821;27;20144;-53
2022/09/10 03:38:38;;;;;;;3.20;1.80;;;;;;;19.64;100.00;96203.56;5140116;27;20541;-52
2022/09/10 03:41:07;;;;;;;2.45;1.40;;;;;;;19.30;100.00;96209.13;5143951;27;20554;-53
2022/09/10 03:43:36;;;;;;;3.53;1.33;;;;;;;19.22;100.00;96212.81;5139384;27;20082;-50
2022/09/10 03:46:04;;;;;;;4.47;1.30;;;;;;;19.25;100.00;96214.28;5139193;27;20085;-48
2022/09/10 03:48:33;;;;;;;2.17;1.30;;;;;;;19.39;100.00;96213.25;5140735;27;20050;-51
2022/09/10 03:51:01;;;;;;;3.30;1.40;;;;;;;19.78;100.00;96201.72;5141263;27;20077;-46
2022/09/10 03:53:30;;;;;;;2.35;1.35;;;;;;;19.27;100.00;96217.56;5142662;27;20487;-50
2022/09/10 03:55:58;;;;;;;4.63;1.80;;;;;;;19.58;100.00;96216.94;5142529;27;20073;-46
2022/09/10 03:58:27;;;;;;;3.38;1.48;;;;;;;19.35;100.00;96212.03;5140529;27;20144;-51
2022/09/10 04:00:56;;;;;;;2.70;1.50;;;;;;;18.72;100.00;96213.16;5137672;27;20124;-52
2022/09/10 04:03:24;;;;;;;3.03;1.60;;;;;;;18.98;100.00;96207.03;5143900;27;20081;-49
2022/09/10 04:05:53;;;;;;;2.40;1.60;;;;;;;19.50;100.00;96203.78;5143150;27;20082;-50
2022/09/10 04:08:22;;;;;;;2.75;1.30;;;;;;;18.69;100.00;96210.88;5140559;27;20090;-49
2022/09/10 04:10:50;;;;;;;2.15;1.30;;;;;;;18.77;100.00;96211.75;5142872;27;20087;-50
2022/09/10 04:13:18;;;;;;;2.83;1.40;;;;;;;18.86;100.00;96211.34;5141644;27;20070;-50
2022/09/10 04:15:48;;;;;;;1.95;1.45;;;;;;;18.87;100.00;96215.66;5144234;27;20607;-51
2022/09/10 04:18:16;;;;;;;3.55;1.50;;;;;;;19.42;100.00;96208.31;5142958;27;20541;-49
2022/09/10 04:20:46;;;;;;;1.92;1.40;;;;;;;19.29;100.00;96202.13;5141489;27;20086;-51
2022/09/10 04:23:15;;;;;;;1.55;1.40;;;;;;;19.15;100.00;96202.13;5146100;27;20525;-48
2022/09/10 04:25:44;;;;;;;3.20;1.30;;;;;;;18.91;100.00;96208.06;5136872;27;20083;-49
2022/09/10 04:28:12;;;;;;;2.40;1.40;;;;;;;19.10;100.00;96198.44;5147224;27;20097;-54
2022/09/10 04:30:40;;;;;;;1.42;1.30;;;;;;;19.29;100.00;96202.97;5142200;27;20070;-49
2022/09/10 04:33:10;;;;;;;2.60;1.33;;;;;;;18.88;100.00;96198.59;5138296;27;20055;-52
2022/09/10 04:35:39;;;;;;;4.30;1.48;;;;;;;19.05;100.00;96200.88;5141723;27;20074;-48
2022/09/10 04:38:07;;;;;;;1.52;1.40;;;;;;;19.21;100.00;96198.63;5142274;27;20082;-48
2022/09/10 04:40:37;;;;;;;2.33;1.60;;;;;;;18.72;100.00;96205.16;5138885;27;20075;-49
2022/09/10 04:43:05;;;;;;;1.55;1.20;;;;;;;19.03;100.00;96195.75;5137351;27;20082;-46
2022/09/10 04:45:33;;;;;;;1.80;1.30;;;;;;;19.55;100.00;96202.13;5143565;27;20078;-51
2022/09/10 04:48:02;;;;;;;1.73;1.33;;;;;;;19.49;100.00;96200.28;5139316;27;20086;-49
2022/09/10 04:50:35;;;;;;;2.40;1.40;;;;;;;19.37;100.00;96204.59;5148289;27;20552;-51
2022/09/10 04:53:03;;;;;;;1.60;1.20;;;;;;;18.91;100.00;96198.19;5147501;27;20083;-50
2022/09/10 04:55:32;;;;;;;4.18;1.55;;;;;;;19.70;100.00;96195.78;5143684;27;20082;-52
2022/09/10 04:58:00;;;;;;;1.58;1.30;;;;;;;19.64;100.00;96200.91;5122600;27;21744;-54
2022/09/10 05:00:29;;;;;;;1.55;1.33;;;;;;;19.84;100.00;96200.88;5120318;27;20130;-56
2022/09/10 05:02:57;;;;;;;2.05;1.23;;;;;;;19.76;100.00;96194.94;5121988;27;20487;-51
2022/09/10 05:05:27;;;;;;;3.33;1.42;;;;;;;20.61;100.00;96196.53;5141843;27;20081;-49
2022/09/10 05:07:59;;;;;;;2.90;1.17;;;;;;;20.78;100.00;96201.38;5142226;27;20090;-49
2022/09/10 05:10:27;;;;;;;2.53;1.10;;;;;;;20.12;100.00;96211.31;5138314;27;20082;-54
2022/09/10 05:12:55;;;;;;;2.05;1.20;;;;;;;20.71;100.00;96206.75;5144801;27;20078;-53
2022/09/10 05:15:24;;;;;;;1.58;1.02;;;;;;;20.12;100.00;96213.16;5138822;27;20096;-59
2022/09/10 05:17:54;;;;;;;1.80;0.90;;;;;;;20.58;100.00;96206.84;5142942;27;20103;-52
2022/09/10 05:20:23;;;;;;;1.98;1.10;;;;;;;20.46;100.00;96208.50;5137461;27;20099;-48
2022/09/10 05:22:51;;;;;;;3.60;1.20;;;;;;;20.79;100.00;96209.22;5130688;27;20042;-51
2022/09/10 05:25:22;;;;;;;2.30;1.17;;;;;;;20.58;100.00;96215.72;5139418;27;20043;-49
2022/09/10 05:27:51;;;;;;;1.25;1.15;;;;;;;20.56;100.00;96216.94;5141261;27;20074;-50
2022/09/10 05:30:19;;;;;;;2.95;1.25;;;;;;;20.42;100.00;96223.38;5147148;27;20070;-50
2022/09/10 05:32:52;;;;;;;2.60;1.20;;;;;;;20.51;100.00;96222.09;5140711;27;20082;-54
2022/09/10 05:35:20;;;;;;;3.22;1.40;;;;;;;20.08;100.00;96225.31;5148881;27;20067;-52
2022/09/10 05:37:48;;;;;;;2.50;1.30;;;;;;;20.11;100.00;96223.06;5133858;27;20077;-49
2022/09/10 05:40:17;;;;;;;3.47;1.30;;;;;;;20.50;100.00;96225.81;5142670;27;20082;-52
2022/09/10 05:42:47;;;;;;;1.73;1.20;;;;;;;20.48;100.00;96227.88;5142526;27;20074;-49
2022/09/10 05:45:15;;;;;;;1.37;1.10;;;;;;;20.43;100.00;96227.69;5142536;27;20082;-50
2022/09/10 05:47:43;;;;;;;1.40;1.15;;;;;;;20.19;100.00;96230.03;5146871;27;20085;-49
2022/09/10 05:50:13;;;;;;;2.75;1.20;;;;;;;20.59;100.00;96229.91;5142749;27;20089;-55
2022/09/10 05:52:41;;;;;;;1.88;1.20;;;;;;;20.50;100.00;96233.84;5142073;27;20078;-50
2022/09/10 05:55:10;;;;;;;1.17;1.00;;;;;;;20.86;100.00;96233.28;5143030;27;20079;-53
2022/09/10 05:57:39;;;;;;;1.95;1.10;;;;;;;20.47;100.00;96234.25;5146615;27;20070;-51
2022/09/10 06:00:10;;;;;;;1.45;1.00;;;;;;;20.75;100.00;96240.16;5140402;27;20078;-52
2022/09/10 06:02:38;;;;;;;2.42;1.10;;;;;;;20.32;100.00;96246.06;5138975;27;20078;-54
2022/09/10 06:05:07;;;;;;;1.45;1.00;;;;;;;20.24;100.00;96253.50;5140991;27;20489;-54
2022/09/10 06:07:36;;;;;;;3.58;1.20;;;;;;;20.47;100.00;96256.50;5136768;27;20079;-52
2022/09/10 06:10:05;;;;;;;1.45;1.10;;;;;;;20.28;100.00;96257.41;5141266;27;20078;-52
2022/09/10 06:12:33;;;;;;;3.10;1.20;;;;;;;19.25;100.00;96263.22;5142805;27;20074;-51
2022/09/10 06:15:02;;;;;;;2.10;1.10;;;;;;;20.19;100.00;96258.66;5141789;27;20072;-54
2022/09/10 06:17:32;;;;;;;1.45;1.10;;;;;;;20.44;100.00;96256.97;5139763;27;20082;-55
2022/09/10 06:20:00;;;;;;;3.70;1.30;;;;;;;20.32;100.00;96254.09;5141320;27;20078;-52
2022/09/10 06:22:29;;;;;;;1.67;1.00;;;;;;;20.27;100.00;96261.94;5143028;27;20112;-50
2022/09/10 06:24:58;;;;;;;2.70;1.02;;;;;;;20.45;100.00;96268.47;5138716;27;20090;-49
2022/09/10 06:27:26;;;;;;;1.98;1.00;;;;;;;20.75;100.00;96271.47;5146878;27;20525;-57
2022/09/10 06:29:55;;;;;;;1.77;1.15;;;;;;;20.62;100.00;96277.72;5133299;27;20081;-48
2022/09/10 06:32:23;;;;;;;1.38;0.95;;;;;;;20.32;100.00;96282.72;5138369;27;20097;-51
2022/09/10 06:34:53;;;;;;;3.60;1.15;;;;;;;20.48;100.00;96293.00;5148047;27;20071;-49
2022/09/10 06:37:23;;;;;;;1.60;1.27;;;;;;;19.87;100.00;96290.63;5147163;27;20074;-47
2022/09/10 06:39:51;;;;;;;1.77;1.23;;;;;;;20.15;100.00;96287.72;5145329;27;20070;-50
2022/09/10 06:42:19;;;;;;;2.50;1.08;;;;;;;20.33;100.00;96289.72;5141871;27;20093;-50
2022/09/10 06:44:49;;;;;;;2.35;1.10;;;;;;;20.58;100.00;96290.72;5141377;27;20070;-55
2022/09/10 06:47:17;;;;;;;1.83;1.08;;;;;;;20.42;100.00;96299.19;5147733;27;20130;-53
2022/09/10 06:50:08;;;;;;;1.75;0.98;;;;;;;20.64;100.00;96294.41;5135859;27;20087;-49
2022/09/10 06:52:38;;;;;;;1.88;1.20;;;;;;;20.87;100.00;96291.22;5142696;27;20085;-51
2022/09/10 06:55:07;;;;;;;2.45;1.13;;;;;;;20.54;100.00;96292.19;5145268;27;20071;-51
2022/09/10 06:57:35;;;;;;;2.38;1.30;;;;;;;21.15;100.00;96290.03;5144871;27;20100;-47
2022/09/10 07:00:05;;;;;;;1.98;1.17;;;;;;;21.68;100.00;96289.69;5139642;27;20085;-48
2022/09/10 07:02:33;;;;;;;3.75;1.10;;;;;;;21.05;100.00;96294.00;5141169;27;20469;-52
2022/09/10 07:05:01;;;;;;;1.58;1.20;;;;;;;21.81;100.00;96298.47;5146890;27;20084;-52
2022/09/10 07:07:31;;;;;;;1.98;1.10;;;;;;;21.51;100.00;96292.13;5139192;27;20075;-51
2022/09/10 07:10:00;;;;;;;1.43;0.93;;;;;;;21.01;100.00;96290.09;5139276;27;20085;-54
2022/09/10 07:12:28;;;;;;;3.35;1.10;;;;;;;20.68;100.00;96289.44;5147165;27;20101;-48
2022/09/10 07:14:57;;;;;;;2.58;1.10;;;;;;;21.10;100.00;96296.88;5146740;27;20101;-55
2022/09/10 07:17:25;;;;;;;2.25;0.95;;;;;;;20.94;100.00;96288.50;5143834;27;20070;-49
2022/09/10 07:19:58;;;;;;;1.98;1.02;;;;;;;21.01;100.00;96302.69;5144329;27;20583;-47
2022/09/10 07:22:27;;;;;;;1.92;1.10;;;;;;;21.19;100.00;96297.44;5150424;27;20089;-55
2022/09/10 07:24:56;;;;;;;2.60;1.10;;;;;;;21.11;100.00;96297.69;5145395;27;20071;-52
2022/09/10 07:27:25;;;;;;;1.37;1.00;;;;;;;21.29;100.00;96294.28;5146560;27;20090;-51
2022/09/10 07:29:53;;;;;;;1.95;1.08;;;;;;;21.68;100.00;96293.22;5144135;27;20493;-49
2022/09/10 07:32:21;;;;;;;2.25;1.02;;;;;;;21.24;100.00;96304.84;5138903;27;20691;-48
2022/09/10 07:34:51;;;;;;;1.70;0.90;;;;;;;20.62;100.00;96301.84;5142412;27;20520;-50
2022/09/10 07:37:19;;;;;;;1.48;1.00;;;;;;;20.86;100.00;96301.13;5140033;27;20539;-52
2022/09/10 07:39:48;;;;;;;2.17;1.00;;;;;;;22.23;100.00;96301.44;5141404;27;20512;-49
2022/09/10 07:42:18;;;;;;;1.38;1.08;;;;;;;21.80;100.00;96306.75;5145526;27;20777;-51
2022/09/10 07:44:46;;;;;;;2.43;1.00;;;;;;;21.69;100.00;96305.59;5144471;27;20066;-51
2022/09/10 07:47:14;;;;;;;2.65;0.98;;;;;;;21.87;100.00;96310.19;5140959;27;20491;-52
2022/09/10 07:49:43;;;;;;;3.13;1.05;;;;;;;21.59;100.00;96313.31;5140146;27;20071;-49
2022/09/10 07:52:12;;;;;;;2.97;0.80;;;;;;;21.70;100.00;96309.09;5151046;27;20446;-51
2022/09/10 07:54:40;;;;;;;1.38;0.88;;;;;;;21.84;100.00;96310.63;5144206;27;20092;-51
2022/09/10 07:57:08;;;;;;;1.60;0.82;;;;;;;22.77;100.00;96304.34;5147433;27;20063;-50
2022/09/10 07:59:38;;;;;;;1.42;0.85;;;;;;;22.57;100.00;96306.44;5140802;27;20066;-49
2022/09/10 08:02:08;;;;;;;1.00;0.90;;;;;;;23.19;100.00;96312.53;5139175;27;20070;-51
2022/09/10 08:04:36;;;;;;;1.57;0.70;;;;;;;22.91;100.00;96305.00;5146824;27;20075;-52
2022/09/10 08:07:05;;;;;;;1.30;0.90;;;;;;;22.39;100.00;96315.31;5148794;27;20508;-52
2022/09/10 08:09:33;;;;;;;2.30;1.00;;;;;;;22.62;100.00;96315.50;5142680;27;20082;-52
2022/09/10 08:12:02;;;;;;;3.28;1.00;;;;;;;22.50;100.00;96318.13;5144449;27;20081;-48
2022/09/10 08:14:30;;;;;;;1.50;0.90;;;;;;;22.62;100.00;96323.56;5137218;27;20489;-49
2022/09/10 08:17:01;;;;;;;0.75;0.70;;;;;;;22.00;100.00;96331.56;5147507;27;20086;-53
2022/09/10 08:19:29;;;;;;;1.30;0.70;;;;;;;22.85;100.00;96330.09;5144252;27;20096;-56
2022/09/10 08:21:58;;;;;;;3.13;0.90;;;;;;;22.90;100.00;96331.09;5141981;27;20183;-53
2022/09/10 08:24:27;;;;;;;1.75;0.80;;;;;;;22.77;100.00;96325.88;5145484;27;20082;-50
2022/09/10 08:26:55;;;;;;;4.18;0.70;;;;;;;22.11;100.00;96334.59;5142071;27;20081;-56
2022/09/10 08:29:23;;;;;;;0.80;0.60;;;;;;;23.09;100.00;96329.25;5139251;27;20067;-52
2022/09/10 08:31:51;;;;;;;1.88;1.20;;;;;;;22.66;100.00;96330.13;5132103;27;20070;-51
2022/09/10 08:34:21;;;;;;;1.27;0.80;;;;;;;23.17;100.00;96328.09;5148086;27;20462;-52
2022/09/10 08:36:49;;;;;;;1.98;1.10;;;;;;;22.67;100.00;96333.63;5137751;27;20121;-52
2022/09/10 08:39:18;;;;;;;4.35;1.10;;;;;;;23.54;100.00;96334.22;5145895;27;20098;-55
2022/09/10 08:41:50;;;;;;;2.17;0.90;;;;;;;22.38;100.00;96341.38;5146214;27;20070;-55
2022/09/10 08:44:28;;;;;;;1.13;0.88;;;;;;;23.82;100.00;96332.78;5133792;27;20158;-50
2022/09/10 08:47:03;;;;;;;1.20;0.75;;;;;;;23.05;100.00;96327.22;5137199;27;20087;-52
2022/09/10 08:49:36;;;;;;;2.15;1.00;;;;;;;23.69;100.00;96334.63;5142342;27;20100;-47
2022/09/10 08:52:10;;;;;;;2.60;0.90;;;;;;;24.68;100.00;96328.63;5147688;27;20074;-49
2022/09/10 08:54:41;;;;;;;1.33;0.77;;;;;;;24.47;100.00;96334.63;5139496;27;20085;-50
2022/09/10 08:57:20;;;;;;;1.60;0.80;;;;;;;23.73;100.00;96334.97;5142071;27;20077;-52
2022/09/10 08:59:51;;;;;;;0.95;0.60;;;;;;;22.86;100.00;96342.53;5136596;27;20528;-52
2022/09/10 09:02:22;;;;;;;1.38;0.70;;;;;;;23.57;100.00;96349.91;5145941;27;20074;-51
2022/09/10 09:05:14;;;;;;;2.20;0.90;;;;;;;23.04;100.00;96352.47;5142193;27;20085;-55
2022/09/10 09:07:43;;;;;;;1.30;0.70;;;;;;;23.22;100.00;96347.06;5139210;27;20075;-51
2022/09/10 09:10:26;;;;;;;2.75;0.90;;;;;;;23.78;100.00;96355.81;5149396;27;20101;-49
2022/09/10 09:13:37;;;;;;;2.15;0.90;;;;;;;23.81;100.00;96350.81;5150985;27;20083;-50
2022/09/10 09:16:07;;;;;;;;;;;;;;;23.43;100.00;96356.50;5127108;27;20552;-49
2022/09/10 09:18:38;;;;;;;0.70;0.70;;;;;;;23.91;100.00;96355.63;5137694;27;19981;-57
2022/09/10 09:21:15;;;;;;;1.73;0.68;;;;;;;23.74;100.00;96366.22;5141147;27;20089;-53
2022/09/10 09:23:50;;;;;;;0.85;0.77;;;;;;;24.19;100.00;96352.28;5134723;27;20077;-53
2022/09/10 09:26:38;;;;;;;1.02;0.68;;;;;;;24.15;100.00;96357.28;5136972;27;20071;-49
2022/09/10 09:29:12;;;;;;;0.93;0.70;;;;;;;23.91;100.00;96350.22;5137219;27;20093;-55
2022/09/10 09:31:44;;;;;;;2.22;0.80;;;;;;;24.77;100.00;96339.84;5139347;27;20077;-49
2022/09/10 09:34:18;;;;;;;1.13;0.70;;;;;;;23.30;100.00;96351.31;5143398;27;20481;-54
2022/09/10 09:36:49;;;;;;;1.98;0.80;;;;;;;23.44;100.00;96350.09;5134915;27;20104;-49
2022/09/10 09:39:20;;;;;;;1.23;0.70;;;;;;;24.59;100.00;96341.63;5136847;27;20082;-54
2022/09/10 09:42:00;;;;;;;1.92;0.90;;;;;;;24.78;100.00;96333.41;5137764;27;20117;-49
2022/09/10 09:44:31;;;;;;;2.28;1.10;;;;;;;24.26;100.00;96342.22;5140250;27;20501;-52
2022/09/10 09:46:59;;;;;;;1.40;0.80;;;;;;;24.50;100.00;96339.53;5133698;27;20095;-51
2022/09/10 09:49:28;;;;;;;1.85;0.80;;;;;;;25.00;100.00;96334.41;5140102;27;20114;-59
2022/09/10 09:51:58;;;;;;;1.73;0.75;;;;;;;24.66;100.00;96330.72;5137917;27;20078;-54
2022/09/10 09:54:30;;;;;;;1.70;0.80;;;;;;;24.53;100.00;96337.16;5135750;27;20062;-55
2022/09/10 09:57:19;;;;;;;2.47;0.80;;;;;;;24.39;100.00;96327.66;5140851;27;20469;-55
2022/09/10 09:59:49;;;;;;;1.35;0.88;;;;;;;24.56;100.00;96319.72;5137094;27;20503;-50
2022/09/10 10:02:19;;;;;;;1.63;1.00;;;;;;;24.42;100.00;96327.22;5137036;27;20434;-52
2022/09/10 10:04:56;;;;;;;1.83;0.70;;;;;;;23.49;100.00;96325.16;5140195;27;20078;-53
2022/09/10 10:07:30;;;;;;;2.47;0.80;;;;;;;23.61;100.00;96326.84;5140496;27;20071;-49
2022/09/10 10:10:00;;;;;;;3.17;1.20;;;;;;;23.94;100.00;96320.13;5139331;27;20078;-49
2022/09/10 10:12:31;;;;;;;5.00;1.20;;;;;;;24.15;100.00;96318.75;5143220;27;20074;-49
2022/09/10 10:15:01;;;;;;;4.57;1.05;;;;;;;24.68;100.00;96311.63;5144861;27;20078;-52
2022/09/10 10:17:39;;;;;;;2.17;1.08;;;;;;;23.51;100.00;96309.63;5141081;27;20128;-57
2022/09/10 10:20:10;;;;;;;2.22;1.15;;;;;;;23.84;100.00;96309.13;5144332;27;20085;-52
2022/09/10 10:22:41;;;;;;;1.85;1.10;;;;;;;23.07;100.00;96307.13;5137145;27;20069;-55
2022/09/10 10:25:35;;;;;;;1.98;0.90;;;;;;;23.30;100.00;96311.78;5144303;27;20078;-51
2022/09/10 10:28:04;;;;;;;1.05;0.90;;;;;;;23.27;100.00;96306.84;5141962;27;20084;-52
2022/09/10 10:30:32;;;;;;;1.10;0.80;;;;;;;23.19;100.00;96294.56;5141495;27;20086;-57
2022/09/10 10:33:02;;;;;;;2.53;0.90;;;;;;;23.56;100.00;96297.09;5142570;27;20055;-51
2022/09/10 10:35:36;;;;;;;3.55;1.00;;;;;;;23.92;100.00;96287.25;5137824;27;20074;-54
2022/09/10 10:38:17;;;;;;;0.82;0.80;;;;;;;23.49;100.00;96291.00;5139788;27;20517;-48
2022/09/10 10:40:50;;;;;;;1.63;0.80;;;;;;;23.86;100.00;96296.25;5143775;27;20117;-52
2022/09/10 10:43:28;;;;;;;2.50;0.82;;;;;;;23.01;100.00;96301.81;5139321;27;20086;-52
2022/09/10 10:46:01;;;;;;;4.32;1.20;;;;;;;22.68;100.00;96303.03;5133435;27;20066;-52
2022/09/10 10:48:38;;;;;;;1.50;0.75;;;;;;;21.70;100.00;96309.09;5131037;27;20085;-52
2022/09/10 10:51:13;;;;;;;1.45;0.90;;;;;;;22.79;100.00;96302.28;5133534;27;20070;-55
2022/09/10 10:53:52;;;;;;;2.78;0.80;;;;;;;22.91;100.00;96289.69;5141967;27;20085;-48
2022/09/10 10:56:24;;;;;;;4.30;1.00;;;;;;;23.29;100.00;96293.16;5140167;27;20664;-52
2022/09/10 10:59:09;;;;;;;1.45;0.70;;;;;;;23.96;100.00;96287.59;5133915;27;20034;-47
2022/09/10 11:01:40;;;;;;;1.67;0.80;;;;;;;23.66;100.00;96289.28;5138354;27;20074;-49
2022/09/10 11:04:23;;;;;;;1.15;0.80;;;;;;;23.88;100.00;96291.44;5143527;27;20078;-55
2022/09/10 11:06:58;;;;;;;2.00;0.80;;;;;;;23.43;100.00;96295.44;5139107;27;20071;-56
2022/09/10 11:09:31;;;;;;;1.35;0.77;;;;;;;23.88;100.00;96291.44;5141691;27;20105;-55
2022/09/10 11:12:02;;;;;;;1.75;0.90;;;;;;;23.02;100.00;96315.06;5140872;27;20070;-52
2022/09/10 11:14:36;;;;;;;8.88;1.50;;;;;;;21.40;100.00;96322.31;5141288;27;20544;-51
2022/09/10 11:17:10;;;;;;;1.30;0.80;;;;;;;21.09;100.00;96311.34;5135832;27;20074;-50
2022/09/10 11:19:42;;;;;;;1.63;0.68;;;;;;;20.34;100.00;96305.59;5142861;27;20067;-55
2022/09/10 11:22:14;;;;;;;2.28;0.88;;;;;;;20.59;100.00;96311.13;5137941;27;20063;-56
2022/09/10 11:24:47;;;;;;;3.08;0.80;;;;;;;20.61;100.00;96308.22;5144837;27;20587;-53
2022/09/10 11:27:20;;;;;;;2.60;1.00;;;;;;;20.77;100.00;96312.28;5145078;27;20027;-47
2022/09/10 11:29:52;;;;;;;2.10;1.00;;;;;;;20.30;100.00;96319.59;5145991;27;20070;-49
2022/09/10 11:32:28;;;;;;;3.00;0.80;;;;;;;21.49;100.00;96303.06;5142617;27;20139;-49
2022/09/10 11:35:01;;;;;;;2.33;0.95;;;;;;;22.00;100.00;96302.03;5142891;27;21966;-53
2022/09/10 11:37:43;;;;;;;1.40;0.80;;;;;;;22.01;100.00;96300.97;5144410;27;20083;-51
2022/09/10 11:40:19;;;;;;;3.13;0.98;;;;;;;21.88;100.00;96302.97;5143233;27;20082;-57
2022/09/10 11:42:51;;;;;;;1.17;0.75;;;;;;;21.14;100.00;96299.94;5137325;27;20086;-53
2022/09/10 11:45:23;;;;;;;1.20;0.88;;;;;;;20.71;100.00;96291.69;5140398;27;20077;-52